createdAt,value
2023-05-05T00:01:54.716Z,56.70
2023-05-05T00:04:21.284Z,56.70
2023-05-05T00:06:47.811Z,56.60
2023-05-05T00:09:14.286Z,56.60
2023-05-05T00:11:40.757Z,56.70
2023-05-05T00:14:07.249Z,56.60
2023-05-05T00:16:33.771Z,56.60
2023-05-05T00:19:00.274Z,56.60
2023-05-05T00:21:26.755Z,56.60
2023-05-05T00:23:53.253Z,56.60
2023-05-05T00:26:19.739Z,56.60
2023-05-05T00:28:46.255Z,56.50
2023-05-05T00:31:12.773Z,56.60
2023-05-05T00:33:39.259Z,56.60
2023-05-05T00:36:05.746Z,56.60
2023-05-05T00:38:32.234Z,56.60
2023-05-05T00:40:58.716Z,56.50
2023-05-05T00:43:25.197Z,56.60
2023-05-05T00:45:51.670Z,56.60
2023-05-05T00:48:18.241Z,56.60
2023-05-05T00:50:44.724Z,56.50
2023-05-05T00:53:11.223Z,56.50
2023-05-05T00:55:37.702Z,56.50
2023-05-05T00:58:04.269Z,56.50
2023-05-05T01:00:30.894Z,56.50
2023-05-05T01:02:57.441Z,56.50
2023-05-05T01:05:23.988Z,56.50
2023-05-05T01:07:50.476Z,56.50
2023-05-05T01:10:20.141Z,56.50
2023-05-05T01:12:47.460Z,56.40
2023-05-05T01:15:14.041Z,56.50
2023-05-05T01:17:40.645Z,56.40
2023-05-05T01:20:07.450Z,56.40
2023-05-05T01:22:34.045Z,56.40
2023-05-05T01:25:00.536Z,56.40
2023-05-05T01:27:27.009Z,56.40
2023-05-05T01:29:53.514Z,56.30
2023-05-05T01:32:20.038Z,56.40
2023-05-05T01:34:46.515Z,56.40
2023-05-05T01:37:13.010Z,56.30
2023-05-05T01:39:39.505Z,56.40
2023-05-05T01:42:05.983Z,56.30
2023-05-05T01:44:32.462Z,56.40
2023-05-05T01:46:58.937Z,56.50
2023-05-05T01:49:25.446Z,56.20
2023-05-05T01:51:51.948Z,56.20
2023-05-05T01:54:18.416Z,56.20
2023-05-05T01:56:44.899Z,56.30
2023-05-05T01:59:11.519Z,56.20
2023-05-05T02:01:38.065Z,56.20
2023-05-05T02:04:04.553Z,56.20
2023-05-05T02:06:31.067Z,56.10
2023-05-05T02:08:57.566Z,56.20
2023-05-05T02:11:24.064Z,56.10
2023-05-05T02:13:50.633Z,56.10
2023-05-05T02:16:17.223Z,56.10
2023-05-05T02:18:43.723Z,56.20
2023-05-05T02:21:10.216Z,56.10
2023-05-05T02:23:36.680Z,56.10
2023-05-05T02:26:03.177Z,56.10
2023-05-05T02:28:29.649Z,56.20
2023-05-05T02:30:56.160Z,56.10
2023-05-05T02:33:22.632Z,56.10
2023-05-05T02:35:49.126Z,56.20
2023-05-05T02:38:15.620Z,56.20
2023-05-05T02:40:42.119Z,56.20
2023-05-05T02:43:08.619Z,56.10
2023-05-05T02:45:35.115Z,56.20
2023-05-05T02:48:01.678Z,56.20
2023-05-05T02:50:28.165Z,56.20
2023-05-05T02:52:54.647Z,56.20
2023-05-05T02:55:22.207Z,56.20
2023-05-05T02:57:48.685Z,56.30
2023-05-05T03:00:15.192Z,56.30
2023-05-05T03:02:41.733Z,56.30
2023-05-05T03:05:08.259Z,56.40
2023-05-05T03:07:34.817Z,56.40
2023-05-05T03:10:01.314Z,56.40
2023-05-05T03:12:27.809Z,56.40
2023-05-05T03:14:54.290Z,56.40
2023-05-05T03:17:20.785Z,56.50
2023-05-05T03:19:47.269Z,56.50
2023-05-05T03:22:13.752Z,56.50
2023-05-05T03:24:40.235Z,56.60
2023-05-05T03:27:06.706Z,56.60
2023-05-05T03:29:33.195Z,56.60
2023-05-05T03:31:59.862Z,56.60
2023-05-05T03:34:26.431Z,56.60
2023-05-05T03:36:52.914Z,56.70
2023-05-05T03:39:19.374Z,56.70
2023-05-05T03:41:45.840Z,56.80
2023-05-05T03:44:12.318Z,56.70
2023-05-05T03:46:38.795Z,56.90
2023-05-05T03:49:05.297Z,56.80
2023-05-05T03:51:31.769Z,56.90
2023-05-05T03:53:58.275Z,56.80
2023-05-05T03:56:24.764Z,56.90
2023-05-05T03:58:51.267Z,57.00
2023-05-05T04:01:17.778Z,57.00
2023-05-05T04:03:44.324Z,57.00
2023-05-05T04:06:10.838Z,56.90
2023-05-05T04:08:37.354Z,57.30
2023-05-05T04:11:03.844Z,57.10
2023-05-05T04:13:30.363Z,57.10
2023-05-05T04:15:56.920Z,57.10
2023-05-05T04:18:23.453Z,57.10
2023-05-05T04:20:49.965Z,57.10
2023-05-05T04:23:16.478Z,57.20
2023-05-05T04:25:47.785Z,57.20
2023-05-05T04:28:14.305Z,57.30
2023-05-05T04:30:40.790Z,57.20
2023-05-05T04:33:07.302Z,57.20
2023-05-05T04:35:33.764Z,57.30
2023-05-05T04:38:00.256Z,57.30
2023-05-05T04:40:26.741Z,57.30
2023-05-05T04:42:53.220Z,57.30
2023-05-05T04:45:19.704Z,57.30
2023-05-05T04:47:46.245Z,57.40
2023-05-05T04:50:12.779Z,57.30
2023-05-05T04:52:39.261Z,57.40
2023-05-05T04:55:05.759Z,57.30
2023-05-05T04:57:32.234Z,57.30
2023-05-05T04:59:58.751Z,57.40
2023-05-05T05:02:25.283Z,57.50
2023-05-05T05:04:51.816Z,57.40
2023-05-05T05:07:18.282Z,57.50
2023-05-05T05:09:44.787Z,57.60
2023-05-05T05:12:11.251Z,57.50
2023-05-05T05:14:37.748Z,57.40
2023-05-05T05:17:04.230Z,57.60
2023-05-05T05:19:30.737Z,57.60
2023-05-05T05:21:57.199Z,57.60
2023-05-05T05:24:23.682Z,57.60
2023-05-05T05:26:50.160Z,57.70
2023-05-05T05:29:16.641Z,57.60
2023-05-05T05:31:43.150Z,57.80
2023-05-05T05:34:12.049Z,57.80
2023-05-05T05:36:39.263Z,57.70
2023-05-05T05:39:05.746Z,57.80
2023-05-05T05:41:32.236Z,57.70
2023-05-05T05:43:58.712Z,57.80
2023-05-05T05:46:25.250Z,57.80
2023-05-05T05:48:51.789Z,57.80
2023-05-05T05:51:18.272Z,57.90
2023-05-05T05:53:44.755Z,58.00
2023-05-05T05:56:11.255Z,58.00
2023-05-05T05:58:37.759Z,57.80
2023-05-05T06:01:04.279Z,57.90
2023-05-05T06:03:30.876Z,57.80
2023-05-05T06:05:57.483Z,58.00
2023-05-05T06:08:25.059Z,58.00
2023-05-05T06:10:51.685Z,58.10
2023-05-05T06:13:18.210Z,58.00
2023-05-05T06:15:44.759Z,58.20
2023-05-05T06:18:11.361Z,58.00
2023-05-05T06:20:37.890Z,58.10
2023-05-05T06:23:04.388Z,58.30
2023-05-05T06:25:30.862Z,58.10
2023-05-05T06:27:57.368Z,58.20
2023-05-05T06:30:23.866Z,58.20
2023-05-05T06:32:50.362Z,58.20
2023-05-05T06:35:16.866Z,58.20
2023-05-05T06:37:43.373Z,58.30
2023-05-05T06:40:09.994Z,58.50
2023-05-05T06:42:36.603Z,58.30
2023-05-05T06:45:03.091Z,58.30
2023-05-05T06:47:29.608Z,58.30
2023-05-05T06:49:56.108Z,58.50
2023-05-05T06:52:22.620Z,58.70
2023-05-05T06:54:49.127Z,58.50
2023-05-05T06:57:15.629Z,58.50
2023-05-05T06:59:42.100Z,58.80
2023-05-05T07:02:08.602Z,58.60
2023-05-05T07:04:35.033Z,58.70
2023-05-05T07:07:01.502Z,58.80
2023-05-05T07:09:28.033Z,58.90
2023-05-05T07:11:54.528Z,59.00
2023-05-05T07:14:23.607Z,59.00
2023-05-05T07:16:50.856Z,59.10
2023-05-05T07:19:17.384Z,59.20
2023-05-05T07:21:43.849Z,59.20
2023-05-05T07:24:10.335Z,59.30
2023-05-05T07:26:36.820Z,59.20
2023-05-05T07:29:03.350Z,59.30
2023-05-05T07:31:29.874Z,59.50
2023-05-05T07:33:56.422Z,59.90
2023-05-05T07:36:23.750Z,59.90
2023-05-05T07:38:50.236Z,59.80
2023-05-05T07:41:16.695Z,59.90
2023-05-05T07:43:44.690Z,60.00
2023-05-05T07:46:11.355Z,60.20
2023-05-05T07:48:37.935Z,60.10
2023-05-05T07:51:04.436Z,60.30
2023-05-05T07:53:30.959Z,60.20
2023-05-05T07:55:57.443Z,60.30
2023-05-05T07:58:23.926Z,60.50
2023-05-05T08:00:50.494Z,60.50
2023-05-05T08:03:17.016Z,60.70
2023-05-05T08:05:43.508Z,60.60
2023-05-05T08:08:09.981Z,60.80
2023-05-05T08:10:36.471Z,61.00
2023-05-05T08:13:02.978Z,60.90
2023-05-05T08:15:29.527Z,60.80
2023-05-05T08:17:56.089Z,60.90
2023-05-05T08:20:22.643Z,60.80
2023-05-05T08:22:49.138Z,61.00
2023-05-05T08:25:15.632Z,61.20
2023-05-05T08:27:42.101Z,61.10
2023-05-05T08:30:08.597Z,61.20
2023-05-05T08:32:35.105Z,61.40
2023-05-05T08:35:01.617Z,61.20
2023-05-05T08:37:28.095Z,61.30
2023-05-05T08:39:54.593Z,61.50
2023-05-05T08:42:35.506Z,61.40
2023-05-05T08:45:03.305Z,61.60
2023-05-05T08:47:29.831Z,61.60
2023-05-05T08:49:56.308Z,61.60
2023-05-05T08:52:22.779Z,61.70
2023-05-05T08:54:49.302Z,61.70
2023-05-05T08:57:15.809Z,61.70
2023-05-05T08:59:42.294Z,61.80
2023-05-05T09:02:08.818Z,61.70
2023-05-05T09:04:35.299Z,61.80
2023-05-05T09:07:01.781Z,61.90
2023-05-05T09:09:28.274Z,61.80
2023-05-05T09:11:54.748Z,62.00
2023-05-05T09:14:21.240Z,61.90
2023-05-05T09:16:47.765Z,62.00
2023-05-05T09:19:14.256Z,62.20
2023-05-05T09:21:40.752Z,62.30
2023-05-05T09:24:09.136Z,62.30
2023-05-05T09:26:35.984Z,62.30
2023-05-05T09:29:02.486Z,62.50
2023-05-05T09:31:29.083Z,62.50
2023-05-05T09:33:55.611Z,62.50
2023-05-05T09:36:22.121Z,62.60
2023-05-05T09:38:48.588Z,62.70
2023-05-05T09:41:15.078Z,62.60
2023-05-05T09:43:41.572Z,62.70
2023-05-05T09:46:08.152Z,62.70
2023-05-05T09:48:34.818Z,62.80
2023-05-05T09:51:01.327Z,62.70
2023-05-05T09:53:27.820Z,63.00
2023-05-05T09:55:54.311Z,63.30
2023-05-05T09:58:20.918Z,63.00
2023-05-05T10:00:47.411Z,63.00
2023-05-05T10:03:13.923Z,62.70
2023-05-05T10:05:40.429Z,63.30
2023-05-05T10:08:06.938Z,63.20
2023-05-05T10:10:33.420Z,63.40
2023-05-05T10:12:59.982Z,63.40
2023-05-05T10:15:26.485Z,63.30
2023-05-05T10:18:05.895Z,63.40
2023-05-05T10:20:33.076Z,63.70
2023-05-05T10:22:59.576Z,63.70
2023-05-05T10:25:26.044Z,63.50
2023-05-05T10:27:52.520Z,63.90
2023-05-05T10:30:19.012Z,63.90
2023-05-05T10:35:14.861Z,63.80
2023-05-05T10:37:41.357Z,64.20
2023-05-05T10:40:08.180Z,64.10
2023-05-05T10:42:34.824Z,64.10
2023-05-05T10:45:01.350Z,64.10
2023-05-05T10:47:27.878Z,64.20
2023-05-05T10:49:54.370Z,64.10
2023-05-05T10:52:20.863Z,64.20
2023-05-05T10:54:47.364Z,64.20
2023-05-05T10:57:13.835Z,64.20
2023-05-05T10:59:40.396Z,64.30
2023-05-05T11:02:06.871Z,64.30
2023-05-05T11:04:33.369Z,64.30
2023-05-05T11:06:59.862Z,64.40
2023-05-05T11:09:26.353Z,64.50
2023-05-05T11:11:52.833Z,64.40
2023-05-05T11:14:19.321Z,64.50
2023-05-05T11:16:45.951Z,64.60
2023-05-05T11:19:12.566Z,64.60
2023-05-05T11:21:39.034Z,64.60
2023-05-05T11:24:05.524Z,64.80
2023-05-05T11:26:31.997Z,64.80
2023-05-05T11:28:58.503Z,64.70
2023-05-05T11:31:25.030Z,64.80
2023-05-05T11:33:51.613Z,64.80
2023-05-05T11:36:18.093Z,64.80
2023-05-05T11:38:44.567Z,64.90
2023-05-05T11:41:11.042Z,64.90
2023-05-05T11:43:37.537Z,64.80
2023-05-05T11:46:04.184Z,64.90
2023-05-05T11:48:30.669Z,65.00
2023-05-05T11:50:57.149Z,65.00
2023-05-05T11:53:23.635Z,64.80
2023-05-05T11:55:50.126Z,64.90
2023-05-05T11:58:16.606Z,64.90
2023-05-05T12:00:43.092Z,64.90
2023-05-05T12:03:09.634Z,65.00
2023-05-05T12:05:37.105Z,65.10
2023-05-05T12:08:03.690Z,65.00
2023-05-05T12:10:30.305Z,65.10
2023-05-05T12:12:56.859Z,65.10
2023-05-05T12:15:23.416Z,65.10
2023-05-05T12:17:49.924Z,65.00
2023-05-05T12:20:16.429Z,65.00
2023-05-05T12:22:42.899Z,65.10
2023-05-05T12:25:09.388Z,65.10
2023-05-05T12:27:35.890Z,65.10
2023-05-05T12:30:02.395Z,65.30
2023-05-05T12:32:28.885Z,65.30
2023-05-05T12:34:55.366Z,65.40
2023-05-05T12:37:21.877Z,65.50
2023-05-05T12:39:48.374Z,65.60
2023-05-05T12:42:14.873Z,65.60
2023-05-05T12:44:41.377Z,65.70
2023-05-05T12:47:07.888Z,65.90
2023-05-05T12:49:34.377Z,65.70
2023-05-05T12:52:00.874Z,65.70
2023-05-05T12:54:27.527Z,65.70
2023-05-05T12:56:54.041Z,65.60
2023-05-05T12:59:20.533Z,65.50
2023-05-05T13:01:47.038Z,65.50
2023-05-05T13:04:13.544Z,65.50
2023-05-05T13:06:40.030Z,65.30
2023-05-05T13:09:06.513Z,65.40
2023-05-05T13:11:32.993Z,65.30
2023-05-05T13:13:59.484Z,65.40
2023-05-05T13:16:25.974Z,65.30
2023-05-05T13:18:52.538Z,65.40
2023-05-05T13:21:19.034Z,65.50
2023-05-05T13:23:45.514Z,65.40
2023-05-05T13:26:12.005Z,65.30
2023-05-05T13:28:38.511Z,65.30
2023-05-05T13:31:05.015Z,65.40
2023-05-05T13:33:31.570Z,65.50
2023-05-05T13:35:58.047Z,65.30
2023-05-05T13:38:24.531Z,65.40
2023-05-05T13:40:51.005Z,65.40
2023-05-05T13:43:17.512Z,65.30
2023-05-05T13:45:43.992Z,65.10
2023-05-05T13:48:10.504Z,65.40
2023-05-05T13:50:36.988Z,65.40
2023-05-05T13:53:03.461Z,65.50
2023-05-05T13:55:29.935Z,65.40
2023-05-05T13:57:56.424Z,65.30
2023-05-05T14:00:22.941Z,65.40
2023-05-05T14:02:49.483Z,65.40
2023-05-05T14:05:16.014Z,65.30
2023-05-05T14:07:42.507Z,65.40
2023-05-05T14:10:09.041Z,65.30
2023-05-05T14:12:35.561Z,65.40
2023-05-05T14:15:02.081Z,65.30
2023-05-05T14:17:28.680Z,65.20
2023-05-05T14:19:55.197Z,65.30
2023-05-05T14:22:21.681Z,65.40
2023-05-05T14:24:48.202Z,65.40
2023-05-05T14:27:14.690Z,65.50
2023-05-05T14:29:41.196Z,65.50
2023-05-05T14:32:07.743Z,65.60
2023-05-05T14:34:34.290Z,65.40
2023-05-05T14:37:00.768Z,65.40
2023-05-05T14:39:27.276Z,65.50
2023-05-05T14:41:53.762Z,65.60
2023-05-05T14:44:20.243Z,65.50
2023-05-05T14:46:47.579Z,65.60
2023-05-05T14:49:15.538Z,65.70
2023-05-05T14:51:41.992Z,65.70
2023-05-05T14:54:20.502Z,65.90
2023-05-05T14:56:53.669Z,65.90
2023-05-05T14:59:20.157Z,65.90
2023-05-05T15:01:46.669Z,66.00
2023-05-05T15:04:13.152Z,66.20
2023-05-05T15:06:39.674Z,66.00
2023-05-05T15:09:06.172Z,66.00
2023-05-05T15:11:32.651Z,66.00
2023-05-05T15:13:59.133Z,65.80
2023-05-05T15:16:25.629Z,66.00
2023-05-05T15:18:52.141Z,65.50
2023-05-05T15:21:18.608Z,66.20
2023-05-05T15:23:45.095Z,66.10
2023-05-05T15:26:11.579Z,66.30
2023-05-05T15:28:38.059Z,66.10
2023-05-05T15:31:04.566Z,66.40
2023-05-05T15:33:31.085Z,66.30
2023-05-05T15:35:57.616Z,66.50
2023-05-05T15:38:24.099Z,66.20
2023-05-05T15:40:50.584Z,66.60
2023-05-05T15:43:17.089Z,66.50
2023-05-05T15:45:43.599Z,66.00
2023-05-05T15:48:10.128Z,65.80
2023-05-05T15:50:36.719Z,66.30
2023-05-05T15:53:03.224Z,65.80
2023-05-05T15:55:30.205Z,66.20
2023-05-05T15:57:56.691Z,66.40
2023-05-05T16:00:23.197Z,66.10
2023-05-05T16:02:49.788Z,66.00
2023-05-05T16:05:16.371Z,66.30
2023-05-05T16:07:42.895Z,66.00
2023-05-05T16:10:09.398Z,65.50
2023-05-05T16:12:35.922Z,65.90
2023-05-05T16:15:02.459Z,65.90
2023-05-05T16:17:28.967Z,66.20
2023-05-05T16:19:55.462Z,66.40
2023-05-05T16:22:21.945Z,66.20
2023-05-05T16:24:48.432Z,66.10
2023-05-05T16:27:14.928Z,66.00
2023-05-05T16:29:42.192Z,65.60
2023-05-05T16:32:08.712Z,65.90
2023-05-05T16:34:35.391Z,65.70
2023-05-05T16:37:01.900Z,65.70
2023-05-05T16:39:28.469Z,65.00
2023-05-05T16:41:54.966Z,64.50
2023-05-05T16:44:21.428Z,64.90
2023-05-05T16:46:47.930Z,63.90
2023-05-05T16:49:14.403Z,64.20
2023-05-05T16:51:40.896Z,63.00
2023-05-05T16:54:07.373Z,63.80
2023-05-05T16:56:33.860Z,62.80
2023-05-05T16:59:00.345Z,62.90
2023-05-05T17:01:30.297Z,63.30
2023-05-05T17:03:57.045Z,63.50
2023-05-05T17:06:23.568Z,63.80
2023-05-05T17:08:50.050Z,63.00
2023-05-05T17:11:16.532Z,63.70
2023-05-05T17:13:43.021Z,64.00
2023-05-05T17:16:09.531Z,64.10
2023-05-05T17:18:36.065Z,62.70
2023-05-05T17:21:02.559Z,65.10
2023-05-05T17:23:29.058Z,67.50
2023-05-05T17:25:55.544Z,67.00
2023-05-05T17:28:22.029Z,67.30
2023-05-05T17:30:48.561Z,66.90
2023-05-05T17:33:15.071Z,68.70
2023-05-05T17:35:41.555Z,68.90
2023-05-05T17:38:08.029Z,69.40
2023-05-05T17:40:34.516Z,68.70
2023-05-05T17:43:01.023Z,68.90
2023-05-05T17:45:27.500Z,68.90
2023-05-05T17:47:54.028Z,68.20
2023-05-05T17:50:20.522Z,68.20
2023-05-05T17:52:47.011Z,67.90
2023-05-05T17:55:13.519Z,67.60
2023-05-05T17:57:40.010Z,67.50
2023-05-05T18:00:06.484Z,67.40
2023-05-05T18:05:23.493Z,66.90
2023-05-05T18:07:49.990Z,66.60
2023-05-05T18:10:16.481Z,66.50
2023-05-05T18:12:43.020Z,66.60
2023-05-05T18:15:09.665Z,66.60
2023-05-05T18:17:36.388Z,66.50
2023-05-05T18:20:02.893Z,66.40
2023-05-05T18:22:29.356Z,66.40
2023-05-05T18:24:55.841Z,66.20
2023-05-05T18:27:22.317Z,66.00
2023-05-05T18:29:48.815Z,66.00
2023-05-05T18:32:15.280Z,66.00
2023-05-05T18:34:41.766Z,65.80
2023-05-05T18:37:08.241Z,65.60
2023-05-05T18:39:34.802Z,65.30
2023-05-05T18:42:01.274Z,65.20
2023-05-05T18:44:27.770Z,65.30
2023-05-05T18:46:54.288Z,65.30
2023-05-05T18:49:20.782Z,65.20
2023-05-05T18:51:47.272Z,65.10
2023-05-05T18:54:13.759Z,64.90
2023-05-05T18:56:40.271Z,65.00
2023-05-05T18:59:06.745Z,64.90
2023-05-05T19:01:33.216Z,64.90
2023-05-05T19:03:59.734Z,65.00
2023-05-05T19:06:26.279Z,64.90
2023-05-05T19:08:52.746Z,64.90
2023-05-05T19:11:19.273Z,64.90
2023-05-05T19:13:45.871Z,64.90
2023-05-05T19:16:12.402Z,64.80
2023-05-05T19:18:38.990Z,64.90
2023-05-05T19:21:05.490Z,64.80
2023-05-05T19:23:31.977Z,64.80
2023-05-05T19:25:58.483Z,64.90
2023-05-05T19:28:24.962Z,64.90
2023-05-05T19:30:51.486Z,64.80
2023-05-05T19:33:17.964Z,64.90
2023-05-05T19:35:44.461Z,64.80
2023-05-05T19:38:10.962Z,64.80
2023-05-05T19:40:37.473Z,64.90
2023-05-05T19:43:03.965Z,64.70
2023-05-05T19:45:30.442Z,64.70
2023-05-05T19:47:56.980Z,64.60
2023-05-05T19:50:23.536Z,64.50
2023-05-05T19:52:50.020Z,64.40
2023-05-05T19:55:18.142Z,64.40
2023-05-05T19:57:44.618Z,64.40
2023-05-05T20:00:11.259Z,64.40
2023-05-05T20:02:38.084Z,64.40
2023-05-05T20:05:04.645Z,64.40
2023-05-05T20:07:31.161Z,64.30
2023-05-05T20:09:58.570Z,64.40
2023-05-05T20:12:25.234Z,64.40
2023-05-05T20:14:51.720Z,64.40
2023-05-05T20:17:18.220Z,64.40
2023-05-05T20:19:44.682Z,64.30
2023-05-05T20:22:12.419Z,64.40
2023-05-05T20:24:38.914Z,64.30
2023-05-05T20:27:05.397Z,64.40
2023-05-05T20:29:31.893Z,64.40
2023-05-05T20:31:58.412Z,64.30
2023-05-05T20:34:25.006Z,64.40
2023-05-05T20:36:54.490Z,64.20
2023-05-05T20:39:20.977Z,64.30
2023-05-05T20:41:47.478Z,64.20
2023-05-05T20:44:13.968Z,64.30
2023-05-05T20:46:40.492Z,64.40
2023-05-05T20:49:07.010Z,64.40
2023-05-05T20:51:33.522Z,64.20
2023-05-05T20:54:00.146Z,64.30
2023-05-05T20:56:26.649Z,64.30
2023-05-05T20:58:53.156Z,64.30
2023-05-05T21:01:19.684Z,64.40
2023-05-05T21:03:46.221Z,64.40
2023-05-05T21:06:12.692Z,64.30
2023-05-05T21:08:39.194Z,64.30
2023-05-05T21:11:05.662Z,65.00
2023-05-05T21:13:32.169Z,64.40
2023-05-05T21:15:58.664Z,64.30
2023-05-05T21:18:25.161Z,64.30
2023-05-05T21:20:51.643Z,64.30
2023-05-05T21:23:18.160Z,64.30
2023-05-05T21:25:44.625Z,64.30
2023-05-05T21:28:11.140Z,64.40
2023-05-05T21:30:37.632Z,64.40
2023-05-05T21:33:04.165Z,64.40
2023-05-05T21:35:30.689Z,64.30
2023-05-05T21:37:57.220Z,64.30
2023-05-05T21:40:23.694Z,64.30
2023-05-05T21:42:50.176Z,64.30
2023-05-05T21:45:16.642Z,64.40
2023-05-05T21:47:43.180Z,64.30
2023-05-05T21:50:09.883Z,64.30
2023-05-05T21:52:36.564Z,64.30
2023-05-05T21:55:03.060Z,64.30
2023-05-05T21:57:29.534Z,64.30
2023-05-05T21:59:56.031Z,64.60
2023-05-05T22:02:22.591Z,64.20
2023-05-05T22:04:49.262Z,64.30
2023-05-05T22:07:15.746Z,64.20
2023-05-05T22:09:42.229Z,64.40
2023-05-05T22:12:08.710Z,64.30
2023-05-05T22:14:35.194Z,64.30
2023-05-05T22:17:01.672Z,64.20
2023-05-05T22:19:28.163Z,64.40
2023-05-05T22:21:54.641Z,64.40
2023-05-05T22:24:21.121Z,64.50
2023-05-05T22:26:47.606Z,64.50
2023-05-05T22:29:14.065Z,64.30
2023-05-05T22:31:40.668Z,64.50
2023-05-05T22:34:07.192Z,64.60
2023-05-05T22:36:33.676Z,64.60
2023-05-05T22:39:00.172Z,64.40
2023-05-05T22:41:26.678Z,64.40
2023-05-05T22:43:53.157Z,64.50
2023-05-05T22:46:19.702Z,64.50
2023-05-05T22:48:46.219Z,64.40
2023-05-05T22:51:12.710Z,64.30
2023-05-05T22:53:39.183Z,64.30
2023-05-05T22:56:05.678Z,64.20
2023-05-05T22:58:32.161Z,64.30
2023-05-05T23:00:58.676Z,64.30
2023-05-05T23:03:25.217Z,64.30
2023-05-05T23:05:54.542Z,64.30
2023-05-05T23:08:21.027Z,64.40
2023-05-05T23:10:47.515Z,64.40
2023-05-05T23:13:14.081Z,64.40
2023-05-05T23:15:40.594Z,64.40
2023-05-05T23:18:07.167Z,64.30
2023-05-05T23:20:33.719Z,64.30
2023-05-05T23:23:00.195Z,64.40
2023-05-05T23:25:26.665Z,64.30
2023-05-05T23:27:53.145Z,64.40
2023-05-05T23:30:19.653Z,64.30
2023-05-05T23:32:46.185Z,64.30
2023-05-05T23:35:12.741Z,64.20
2023-05-05T23:37:39.271Z,64.20
2023-05-05T23:40:05.752Z,64.30
2023-05-05T23:42:32.258Z,64.10
2023-05-05T23:44:58.742Z,64.20
2023-05-05T23:47:25.285Z,64.30
2023-05-05T23:49:51.801Z,64.30
2023-05-05T23:52:18.310Z,64.20
2023-05-05T23:54:44.788Z,64.20
2023-05-05T23:57:11.282Z,64.10
2023-05-05T23:59:37.761Z,64.10
